createdAt,value
2016-06-18T00:00:37.770Z,19.75
2016-06-18T00:01:37.819Z,19.75
2016-06-18T00:02:37.887Z,19.78
2016-06-18T00:03:37.826Z,19.75
2016-06-18T00:04:37.862Z,19.85
2016-06-18T00:05:37.896Z,19.8
2016-06-18T00:06:37.869Z,19.75
2016-06-18T00:07:37.778Z,19.75
2016-06-18T00:08:37.844Z,19.79
2016-06-18T00:09:37.863Z,19.75
2016-06-18T00:10:37.804Z,19.79
2016-06-18T00:11:37.808Z,19.75
2016-06-18T00:12:37.858Z,19.71
2016-06-18T00:13:37.831Z,19.78
2016-06-18T00:14:37.834Z,19.85
2016-06-18T00:15:37.837Z,19.85
2016-06-18T00:16:37.856Z,19.79
2016-06-18T00:17:37.828Z,19.86
2016-06-18T00:18:37.878Z,19.83
2016-06-18T00:19:37.820Z,19.74
2016-06-18T00:20:37.885Z,19.72
2016-06-18T00:21:37.842Z,19.71
2016-06-18T00:22:37.909Z,19.74
2016-06-18T00:23:37.928Z,19.74
2016-06-18T00:24:37.775Z,19.75
2016-06-18T00:25:37.794Z,19.74
2016-06-18T00:26:37.891Z,19.74
2016-06-18T00:27:37.848Z,19.74
2016-06-18T00:28:37.804Z,19.7
2016-06-18T00:29:37.917Z,19.67
2016-06-18T00:30:37.952Z,19.65
2016-06-18T00:31:37.908Z,19.7
2016-06-18T00:32:37.881Z,19.64
2016-06-18T00:33:37.852Z,19.61
2016-06-18T00:34:37.872Z,19.68
2016-06-18T00:35:37.922Z,19.65
2016-06-18T00:36:37.941Z,19.64
2016-06-18T00:37:37.836Z,19.68
2016-06-18T00:38:37.948Z,19.7
2016-06-18T00:39:37.842Z,19.6
2016-06-18T00:40:37.862Z,19.67
2016-06-18T00:41:37.833Z,19.57
2016-06-18T00:42:37.869Z,19.57
2016-06-18T00:43:37.919Z,19.53
2016-06-18T00:44:37.829Z,19.57
2016-06-18T00:45:37.941Z,19.5
2016-06-18T00:46:37.882Z,19.56
2016-06-18T00:47:37.886Z,19.52
2016-06-18T00:48:37.873Z,19.64
2016-06-18T00:49:37.908Z,19.56
2016-06-18T00:50:37.911Z,19.53
2016-06-18T00:51:37.930Z,19.65
2016-06-18T00:52:37.950Z,19.49
2016-06-18T00:53:37.891Z,19.53
2016-06-18T00:54:37.925Z,19.61
2016-06-18T00:55:37.898Z,19.55
2016-06-18T00:56:37.901Z,19.55
2016-06-18T00:57:38.014Z,19.6
2016-06-18T00:58:38.017Z,19.5
2016-06-18T00:59:37.974Z,19.56
2016-06-18T01:00:37.915Z,19.53
2016-06-18T01:01:37.950Z,19.55
2016-06-18T01:02:38.000Z,19.55
2016-06-18T01:03:37.925Z,19.53
2016-06-18T01:04:37.929Z,19.49
2016-06-18T01:05:37.979Z,19.53
2016-06-18T01:06:37.967Z,19.53
2016-06-18T01:07:37.939Z,19.5
2016-06-18T01:08:38.037Z,19.49
2016-06-18T01:09:38.008Z,19.63
2016-06-18T01:10:37.902Z,19.53
2016-06-18T01:11:37.984Z,19.52
2016-06-18T01:12:37.926Z,19.52
2016-06-18T01:13:37.897Z,19.56
2016-06-18T01:14:37.995Z,19.56
2016-06-18T01:15:37.998Z,19.5
2016-06-18T01:16:38.017Z,19.56
2016-06-18T01:17:38.005Z,19.61
2016-06-18T01:18:38.008Z,19.6
2016-06-18T01:19:37.981Z,19.6
2016-06-18T01:20:37.984Z,19.63
2016-06-18T01:21:38.019Z,19.6
2016-06-18T01:22:37.991Z,19.64
2016-06-18T01:23:38.025Z,19.68
2016-06-18T01:24:37.968Z,19.57
2016-06-18T01:25:38.110Z,19.63
2016-06-18T01:26:37.958Z,19.65
2016-06-18T01:27:38.009Z,19.61
2016-06-18T01:28:37.981Z,19.6
2016-06-18T01:29:38.046Z,19.61
2016-06-18T01:30:37.988Z,19.65
2016-06-18T01:31:38.007Z,19.65
2016-06-18T01:32:38.057Z,19.6
2016-06-18T01:33:38.077Z,19.68
2016-06-18T01:34:38.017Z,19.57
2016-06-18T01:35:38.036Z,19.65
2016-06-18T01:36:38.039Z,19.64
2016-06-18T01:37:38.074Z,19.63
2016-06-18T01:38:38.016Z,19.71
2016-06-18T01:39:38.050Z,19.74
2016-06-18T01:40:38.054Z,19.68
2016-06-18T01:41:37.979Z,19.63
2016-06-18T01:42:38.061Z,19.68
2016-06-18T01:43:38.064Z,19.7
2016-06-18T01:44:37.958Z,19.64
2016-06-18T01:45:38.071Z,19.68
2016-06-18T01:46:38.044Z,19.61
2016-06-18T01:47:38.047Z,19.61
2016-06-18T01:48:38.003Z,19.7
2016-06-18T01:49:38.054Z,19.64
2016-06-18T01:50:38.120Z,19.65
2016-06-18T01:51:38.091Z,19.65
2016-06-18T01:52:38.048Z,19.68
2016-06-18T01:53:38.130Z,19.64
2016-06-18T01:54:38.058Z,19.67
2016-06-18T01:55:38.080Z,19.61
2016-06-18T01:56:38.086Z,19.68
2016-06-18T01:57:38.093Z,19.65
2016-06-18T01:58:38.053Z,19.67
2016-06-18T01:59:37.886Z,19.63
2016-06-18T02:00:38.109Z,19.67
2016-06-18T02:01:38.067Z,19.56
2016-06-18T02:02:38.072Z,19.6
2016-06-18T02:03:38.185Z,19.68
2016-06-18T02:04:38.111Z,19.68
2016-06-18T02:05:38.131Z,19.63
2016-06-18T02:06:38.150Z,19.71
2016-06-18T02:07:38.170Z,19.68
2016-06-18T02:08:38.096Z,19.72
2016-06-18T02:09:38.100Z,19.74
2016-06-18T02:10:38.165Z,19.72
2016-06-18T02:11:38.154Z,19.78
2016-06-18T02:12:38.158Z,19.75
2016-06-18T02:13:38.115Z,19.79
2016-06-18T02:14:38.165Z,19.7
2016-06-18T02:15:38.200Z,19.72
2016-06-18T02:16:38.125Z,19.7
2016-06-18T02:17:38.160Z,19.68
2016-06-18T02:18:38.194Z,19.7
2016-06-18T02:19:38.182Z,19.65
2016-06-18T02:20:38.186Z,19.7
2016-06-18T02:21:38.111Z,19.71
2016-06-18T02:22:38.146Z,19.74
2016-06-18T02:23:38.180Z,19.65
2016-06-18T02:24:38.168Z,19.64
2016-06-18T02:25:38.046Z,19.6
2016-06-18T02:26:38.097Z,19.65
2016-06-18T02:27:38.116Z,19.68
2016-06-18T02:28:38.166Z,19.68
2016-06-18T02:29:38.139Z,19.65
2016-06-18T02:30:38.174Z,19.68
2016-06-18T02:31:38.208Z,19.65
2016-06-18T02:32:38.087Z,19.6
2016-06-18T02:33:38.153Z,19.63
2016-06-18T02:34:38.234Z,19.64
2016-06-18T02:35:38.191Z,19.56
2016-06-18T02:36:38.195Z,19.68
2016-06-18T02:37:38.275Z,19.65
2016-06-18T02:38:38.170Z,19.47
2016-06-18T02:39:38.095Z,19.49
2016-06-18T02:40:38.178Z,19.53
2016-06-18T02:41:38.180Z,19.53
2016-06-18T02:42:38.199Z,19.64
2016-06-18T02:43:38.187Z,19.5
2016-06-18T02:44:38.206Z,19.55
2016-06-18T02:45:38.304Z,19.5
2016-06-18T02:46:38.228Z,19.52
2016-06-18T02:47:38.122Z,19.49
2016-06-18T02:48:38.158Z,19.53
2016-06-18T02:49:38.193Z,19.56
2016-06-18T02:50:38.289Z,19.55
2016-06-18T02:51:39.215Z,19.53
2016-06-18T02:52:38.297Z,19.57
2016-06-18T02:53:38.253Z,19.64
2016-06-18T02:54:38.256Z,19.52
2016-06-18T02:55:38.213Z,19.6
2016-06-18T02:56:38.232Z,19.64
2016-06-18T02:57:38.314Z,19.7
2016-06-18T02:58:38.271Z,19.57
2016-06-18T02:59:38.321Z,19.55
2016-06-18T03:00:38.277Z,19.63
2016-06-18T03:01:38.328Z,19.56
2016-06-18T03:02:38.253Z,19.6
2016-06-18T03:03:38.288Z,19.6
2016-06-18T03:04:38.228Z,19.56
2016-06-18T03:05:38.184Z,19.65
2016-06-18T03:06:38.267Z,19.6
2016-06-18T03:07:38.255Z,19.56
2016-06-18T03:08:38.227Z,19.63
2016-06-18T03:09:38.277Z,19.57
2016-06-18T03:10:38.281Z,19.57
2016-06-18T03:11:38.284Z,19.63
2016-06-18T03:12:38.288Z,19.67
2016-06-18T03:13:38.259Z,19.65
2016-06-18T03:14:38.262Z,19.71
2016-06-18T03:15:38.266Z,19.71
2016-06-18T03:16:38.333Z,19.71
2016-06-18T03:17:38.305Z,19.65
2016-06-18T03:18:38.293Z,19.74
2016-06-18T03:19:38.249Z,19.78
2016-06-18T03:20:38.236Z,19.68
2016-06-18T03:21:38.100Z,19.7
2016-06-18T03:22:38.323Z,19.68
2016-06-18T03:23:38.387Z,19.64
2016-06-18T03:24:38.360Z,19.71
2016-06-18T03:25:38.223Z,19.74
2016-06-18T03:26:38.304Z,19.71
2016-06-18T03:27:38.370Z,19.6
2016-06-18T03:28:38.280Z,19.65
2016-06-18T03:29:38.314Z,19.6
2016-06-18T03:30:38.318Z,19.64
2016-06-18T03:31:38.322Z,19.61
2016-06-18T03:32:38.324Z,19.52
2016-06-18T03:33:38.391Z,19.53
2016-06-18T03:34:38.395Z,19.52
2016-06-18T03:35:38.368Z,19.53
2016-06-18T03:36:38.338Z,19.45
2016-06-18T03:37:38.342Z,19.53
2016-06-18T03:38:38.378Z,19.49
2016-06-18T03:39:38.334Z,19.49
2016-06-18T03:40:38.385Z,19.52
2016-06-18T03:41:38.356Z,19.6
2016-06-18T03:42:38.312Z,19.47
2016-06-18T03:43:38.207Z,19.38
2016-06-18T03:44:38.305Z,19.5
2016-06-18T03:45:38.573Z,19.5
2016-06-18T03:46:38.389Z,19.5
2016-06-18T03:47:38.330Z,19.38
2016-06-18T03:48:38.333Z,19.43
2016-06-18T03:49:38.587Z,19.52
2016-06-18T03:50:38.512Z,19.47
2016-06-18T03:51:38.407Z,19.42
2016-06-18T03:52:38.254Z,19.5
2016-06-18T03:53:38.305Z,19.52
2016-06-18T03:54:38.354Z,19.53
2016-06-18T03:55:38.357Z,19.57
2016-06-18T03:56:38.440Z,19.52
2016-06-18T03:57:38.333Z,19.49
2016-06-18T03:58:38.431Z,19.56
2016-06-18T03:59:38.356Z,19.53
2016-06-18T04:00:38.375Z,19.49
2016-06-18T04:01:38.394Z,19.61
2016-06-18T04:02:38.367Z,19.56
2016-06-18T04:03:38.339Z,19.57
2016-06-18T04:04:38.296Z,19.52
2016-06-18T04:05:38.471Z,19.61
2016-06-18T04:06:38.333Z,19.53
2016-06-18T04:07:38.446Z,19.49
2016-06-18T04:08:38.450Z,19.47
2016-06-18T04:09:38.453Z,19.53
2016-06-18T04:10:38.490Z,19.56
2016-06-18T04:11:38.484Z,19.55
2016-06-18T04:12:38.400Z,19.49
2016-06-18T04:13:38.488Z,19.47
2016-06-18T04:14:38.449Z,19.56
2016-06-18T04:15:38.443Z,19.53
2016-06-18T04:16:38.511Z,19.64
2016-06-18T04:17:38.439Z,19.5
2016-06-18T04:18:38.382Z,19.47
2016-06-18T04:19:38.560Z,19.5
2016-06-18T04:20:38.455Z,19.53
2016-06-18T04:21:38.491Z,19.55
2016-06-18T04:22:38.573Z,19.45
2016-06-18T04:23:38.454Z,19.46
2016-06-18T04:24:38.535Z,19.47
2016-06-18T04:25:38.445Z,19.61
2016-06-18T04:26:38.480Z,19.53
2016-06-18T04:27:38.548Z,19.61
2016-06-18T04:28:38.598Z,19.57
2016-06-18T04:29:38.523Z,19.49
2016-06-18T04:30:38.574Z,19.5
2016-06-18T04:31:38.562Z,19.5
2016-06-18T04:32:38.440Z,19.6
2016-06-18T04:33:38.475Z,19.49
2016-06-18T04:34:38.415Z,19.52
2016-06-18T04:35:38.544Z,19.47
2016-06-18T04:36:38.533Z,19.47
2016-06-18T04:37:38.519Z,19.52
2016-06-18T04:38:38.586Z,19.56
2016-06-18T04:39:38.527Z,19.49
2016-06-18T04:40:38.499Z,19.53
2016-06-18T04:41:38.549Z,19.55
2016-06-18T04:42:38.584Z,19.5
2016-06-18T04:43:38.540Z,19.63
2016-06-18T04:44:38.607Z,19.56
2016-06-18T04:45:38.548Z,19.47
2016-06-18T04:46:38.457Z,19.56
2016-06-18T04:47:38.507Z,19.56
2016-06-18T04:48:38.558Z,19.57
2016-06-18T04:49:38.592Z,19.47
2016-06-18T04:50:38.471Z,19.49
2016-06-18T04:51:38.537Z,19.56
2016-06-18T04:52:38.572Z,19.53
2016-06-18T04:53:38.544Z,19.68
2016-06-18T04:54:38.578Z,19.61
2016-06-18T04:55:38.504Z,19.67
2016-06-18T04:56:38.491Z,19.71
2016-06-18T04:57:38.542Z,19.61
2016-06-18T04:58:38.545Z,19.79
2016-06-18T04:59:38.565Z,19.72
2016-06-18T05:00:38.505Z,19.79
2016-06-18T05:01:38.571Z,19.75
2016-06-18T05:02:38.575Z,19.86
2016-06-18T05:03:38.532Z,19.87
2016-06-18T05:04:38.551Z,19.89
2016-06-18T05:05:38.648Z,19.85
2016-06-18T05:06:38.605Z,19.85
2016-06-18T05:07:38.576Z,19.87
2016-06-18T05:08:38.580Z,19.9
2016-06-18T05:09:38.647Z,19.9
2016-06-18T05:10:38.493Z,19.92
2016-06-18T05:11:38.559Z,19.87
2016-06-18T05:12:38.594Z,19.89
2016-06-18T05:13:38.505Z,19.9
2016-06-18T05:14:38.647Z,19.98
2016-06-18T05:15:38.542Z,19.92
2016-06-18T05:16:38.639Z,19.9
2016-06-18T05:17:38.549Z,19.95
2016-06-18T05:18:38.584Z,19.95
2016-06-18T05:19:38.617Z,19.97
2016-06-18T05:20:38.590Z,19.87
2016-06-18T05:21:38.672Z,19.92
2016-06-18T05:22:38.660Z,19.86
2016-06-18T05:23:38.601Z,19.93
2016-06-18T05:24:38.636Z,19.93
2016-06-18T05:25:38.545Z,19.9
2016-06-18T05:26:38.517Z,19.85
2016-06-18T05:27:38.662Z,19.89
2016-06-18T05:28:38.587Z,19.92
2016-06-18T05:29:38.699Z,19.89
2016-06-18T05:30:38.609Z,19.92
2016-06-18T05:31:38.597Z,19.86
2016-06-18T05:32:38.710Z,19.92
2016-06-18T05:33:38.667Z,19.93
2016-06-18T05:34:38.622Z,19.86
2016-06-18T05:35:38.689Z,19.93
2016-06-18T05:36:38.693Z,19.85
2016-06-18T05:37:38.587Z,19.93
2016-06-18T05:38:38.621Z,19.92
2016-06-18T05:39:38.656Z,19.85
2016-06-18T05:40:38.613Z,19.89
2016-06-18T05:41:38.679Z,19.82
2016-06-18T05:42:38.636Z,19.86
2016-06-18T05:43:38.670Z,19.89
2016-06-18T05:44:38.704Z,19.93
2016-06-18T05:45:38.646Z,19.92
2016-06-18T05:46:38.664Z,20
2016-06-18T05:47:38.653Z,19.93
2016-06-18T05:48:38.640Z,19.95
2016-06-18T05:49:38.738Z,20.01
2016-06-18T05:50:38.663Z,19.93
2016-06-18T05:51:38.698Z,19.95
2016-06-18T05:52:38.732Z,19.9
2016-06-18T05:53:38.688Z,20.01
2016-06-18T05:54:38.692Z,19.92
2016-06-18T05:55:38.680Z,19.97
2016-06-18T05:56:38.653Z,20.1
2016-06-18T05:57:38.797Z,20
2016-06-18T05:58:38.831Z,20.01
2016-06-18T05:59:38.709Z,19.97
2016-06-18T06:00:38.729Z,20.02
2016-06-18T06:01:38.654Z,19.97
2016-06-18T06:02:38.752Z,20
2016-06-18T06:03:38.739Z,20.08
2016-06-18T06:04:38.711Z,19.95
2016-06-18T06:05:38.762Z,20.01
2016-06-18T06:06:38.734Z,19.93
2016-06-18T06:07:38.722Z,20.11
2016-06-18T06:08:38.709Z,20.07
2016-06-18T06:09:38.729Z,20.08
2016-06-18T06:10:38.669Z,20.04
2016-06-18T06:11:38.720Z,20.04
2016-06-18T06:12:38.754Z,20.08
2016-06-18T06:13:38.664Z,20.07
2016-06-18T06:14:38.761Z,20.02
2016-06-18T06:15:38.764Z,20.02
2016-06-18T06:16:38.722Z,20.16
2016-06-18T06:17:38.726Z,20.05
2016-06-18T06:18:38.619Z,20.02
2016-06-18T06:19:38.763Z,20.01
2016-06-18T06:20:38.736Z,20.1
2016-06-18T06:21:38.739Z,20.05
2016-06-18T06:22:38.773Z,20.07
2016-06-18T06:23:38.746Z,19.97
2016-06-18T06:24:38.749Z,20.04
2016-06-18T06:25:38.785Z,19.98
2016-06-18T06:26:38.725Z,20.02
2016-06-18T06:27:38.698Z,20.1
2016-06-18T06:28:38.766Z,19.98
2016-06-18T06:29:38.800Z,20.1
2016-06-18T06:30:38.774Z,19.93
2016-06-18T06:31:38.778Z,20.01
2016-06-18T06:32:38.735Z,20.08
2016-06-18T06:33:38.786Z,20.05
2016-06-18T06:34:38.882Z,19.89
2016-06-18T06:35:38.824Z,19.97
2016-06-18T06:36:38.890Z,20.04
2016-06-18T06:37:38.940Z,20.07
2016-06-18T06:38:38.881Z,20.11
2016-06-18T06:39:38.807Z,20.05
2016-06-18T06:40:38.842Z,20.02
2016-06-18T06:41:38.830Z,20.11
2016-06-18T06:42:38.817Z,20.1
2016-06-18T06:43:38.805Z,20.12
2016-06-18T06:44:38.792Z,20.08
2016-06-18T06:45:38.781Z,20.12
2016-06-18T06:46:38.738Z,20.07
2016-06-18T06:47:38.803Z,20.11
2016-06-18T06:48:38.900Z,20.08
2016-06-18T06:49:38.701Z,20.11
2016-06-18T06:50:38.846Z,20.18
2016-06-18T06:51:38.802Z,20.12
2016-06-18T06:52:38.837Z,20.16
2016-06-18T06:53:38.730Z,20.15
2016-06-18T06:54:38.827Z,20.11
2016-06-18T06:55:39.534Z,20.16
2016-06-18T06:56:38.850Z,20.12
2016-06-18T06:57:38.838Z,20.16
2016-06-18T06:58:38.779Z,20.15
2016-06-18T06:59:38.813Z,20.2
2016-06-18T07:00:38.864Z,20.19
2016-06-18T07:01:38.884Z,20.23
2016-06-18T07:02:38.949Z,20.23
2016-06-18T07:03:38.828Z,20.2
2016-06-18T07:04:38.830Z,20.16
2016-06-18T07:05:38.897Z,20.18
2016-06-18T07:06:38.869Z,20.22
2016-06-18T07:07:38.857Z,20.15
2016-06-18T07:08:38.861Z,20.2
2016-06-18T07:09:38.864Z,20.2
2016-06-18T07:10:38.820Z,20.2
2016-06-18T07:11:38.855Z,20.18
2016-06-18T07:12:38.890Z,20.25
2016-06-18T07:13:38.893Z,20.23
2016-06-18T07:14:38.897Z,20.27
2016-06-18T07:15:38.852Z,20.22
2016-06-18T07:16:38.903Z,20.25
2016-06-18T07:17:38.813Z,20.26
2016-06-18T07:18:38.910Z,20.26
2016-06-18T07:19:38.946Z,20.23
2016-06-18T07:20:38.871Z,20.25
2016-06-18T07:21:38.873Z,20.32
2016-06-18T07:22:38.924Z,20.26
2016-06-18T07:23:38.849Z,20.34
2016-06-18T07:24:38.853Z,20.29
2016-06-18T07:25:38.856Z,20.35
2016-06-18T07:26:38.891Z,20.25
2016-06-18T07:27:38.895Z,20.26
2016-06-18T07:28:38.929Z,20.29
2016-06-18T07:29:38.839Z,20.26
2016-06-18T07:30:38.920Z,20.27
2016-06-18T07:31:38.893Z,20.3
2016-06-18T07:32:38.897Z,20.35
2016-06-18T07:33:38.900Z,20.4
2016-06-18T07:34:38.888Z,20.37
2016-06-18T07:35:38.907Z,20.37
2016-06-18T07:36:38.926Z,20.38
2016-06-18T07:37:38.898Z,20.42
2016-06-18T07:38:38.870Z,20.4
2016-06-18T07:39:38.968Z,20.35
2016-06-18T07:40:38.908Z,20.35
2016-06-18T07:41:38.943Z,20.41
2016-06-18T07:42:38.915Z,20.37
2016-06-18T07:43:38.996Z,20.4
2016-06-18T07:44:38.922Z,20.44
2016-06-18T07:45:38.878Z,20.44
2016-06-18T07:46:38.960Z,20.4
2016-06-18T07:47:38.964Z,20.44
2016-06-18T07:48:38.967Z,20.42
2016-06-18T07:49:38.955Z,20.48
2016-06-18T07:50:38.912Z,20.42
2016-06-18T07:51:39.088Z,20.38
2016-06-18T07:52:38.996Z,20.38
2016-06-18T07:53:38.953Z,20.37
2016-06-18T07:54:39.034Z,20.46
2016-06-18T07:55:38.960Z,20.42
2016-06-18T07:56:39.041Z,20.42
2016-06-18T07:57:39.061Z,20.41
2016-06-18T07:58:38.971Z,20.49
2016-06-18T07:59:38.927Z,20.54
2016-06-18T08:00:39.055Z,20.37
2016-06-18T08:01:38.919Z,20.44
2016-06-18T08:02:38.953Z,20.38
2016-06-18T08:03:38.926Z,20.48
2016-06-18T08:04:39.054Z,20.44
2016-06-18T08:05:39.026Z,20.42
2016-06-18T08:06:38.967Z,20.37
2016-06-18T08:07:38.939Z,20.4
2016-06-18T08:08:38.896Z,20.46
2016-06-18T08:09:38.993Z,20.44
2016-06-18T08:10:39.059Z,20.53
2016-06-18T08:11:39.015Z,20.57
2016-06-18T08:12:39.097Z,20.44
2016-06-18T08:13:39.039Z,20.49
2016-06-18T08:14:38.994Z,20.49
2016-06-18T08:15:38.983Z,20.49
2016-06-18T08:16:38.923Z,20.56
2016-06-18T08:17:39.067Z,20.57
2016-06-18T08:18:39.008Z,20.51
2016-06-18T08:19:39.013Z,20.46
2016-06-18T08:20:39.047Z,20.54
2016-06-18T08:21:39.019Z,20.51
2016-06-18T08:22:39.053Z,20.51
2016-06-18T08:23:38.995Z,20.41
2016-06-18T08:24:39.029Z,20.53
2016-06-18T08:25:38.986Z,20.44
2016-06-18T08:26:38.990Z,20.53
2016-06-18T08:27:38.962Z,20.48
2016-06-18T08:28:39.090Z,20.56
2016-06-18T08:29:39.062Z,20.41
2016-06-18T08:30:39.081Z,20.53
2016-06-18T08:31:38.991Z,20.56
2016-06-18T08:32:39.073Z,20.51
2016-06-18T08:33:39.061Z,20.41
2016-06-18T08:34:39.126Z,20.46
2016-06-18T08:35:39.067Z,20.51
2016-06-18T08:36:39.040Z,20.44
2016-06-18T08:37:38.996Z,20.48
2016-06-18T08:38:39.078Z,20.6
2016-06-18T08:39:38.972Z,20.57
2016-06-18T08:40:39.132Z,20.63
2016-06-18T08:41:38.994Z,20.61
2016-06-18T08:42:39.091Z,20.66
2016-06-18T08:43:39.113Z,20.61
2016-06-18T08:47:10.156Z,20.6
2016-06-18T08:47:26.656Z,20.66
2016-06-18T08:47:30.484Z,20.68
2016-06-18T08:48:24.773Z,20.75
2016-06-18T08:49:24.919Z,20.78
2016-06-18T08:50:24.799Z,20.74
2016-06-18T08:51:24.867Z,20.81
2016-06-18T08:52:24.965Z,20.78
2016-06-18T08:53:24.872Z,20.78
2016-06-18T08:54:24.924Z,20.79
2016-06-18T08:55:24.942Z,20.81
2016-06-18T08:56:24.885Z,20.82
2016-06-18T08:57:24.841Z,20.82
2016-06-18T08:58:24.923Z,20.82
2016-06-18T08:59:24.896Z,20.9
2016-06-18T09:00:24.931Z,20.83
2016-06-18T09:01:24.934Z,20.94
2016-06-18T09:02:24.939Z,20.9
2016-06-18T09:03:24.896Z,20.88
2016-06-18T09:04:24.945Z,20.91
2016-06-18T09:05:24.980Z,20.88
2016-06-18T09:06:24.844Z,20.96
2016-06-18T09:07:24.956Z,20.79
2016-06-18T09:08:24.896Z,20.93
2016-06-18T09:09:24.994Z,20.83
2016-06-18T09:10:24.967Z,20.83
2016-06-18T09:11:24.845Z,20.9
2016-06-18T09:12:24.973Z,20.93
2016-06-18T09:13:24.899Z,20.9
2016-06-18T09:14:24.934Z,20.9
2016-06-18T09:15:24.875Z,20.94
2016-06-18T09:16:24.940Z,20.91
2016-06-18T09:17:25.022Z,20.9
2016-06-18T09:20:10.722Z,20.94
2016-06-18T09:21:10.913Z,20.86
2016-06-18T09:22:10.822Z,20.9
2016-06-18T09:23:10.795Z,20.85
2016-06-18T09:24:10.830Z,20.93
2016-06-18T09:25:10.661Z,20.9
2016-06-18T09:26:10.805Z,20.91
2016-06-18T09:27:10.809Z,20.94
2016-06-18T09:28:10.703Z,20.88
2016-06-18T09:29:10.816Z,20.97
2016-06-18T09:31:10.807Z,20.96
2016-06-18T09:32:10.811Z,20.93
2016-06-18T09:33:10.752Z,20.96
2016-06-18T09:34:10.864Z,20.94
2016-06-18T09:35:10.852Z,20.9
2016-06-18T09:36:10.809Z,20.91
2016-06-18T09:37:10.827Z,20.9
2016-06-18T09:38:10.831Z,20.88
2016-06-18T09:39:10.866Z,20.85
2016-06-18T09:40:10.838Z,20.82
2016-06-18T09:41:10.811Z,20.86
2016-06-18T09:42:10.845Z,20.9
2016-06-18T09:43:10.912Z,20.83
2016-06-18T09:44:10.820Z,20.94
2016-06-18T09:45:10.855Z,20.9
2016-06-18T09:46:10.859Z,20.91
2016-06-18T09:47:10.800Z,20.91
2016-06-18T09:48:10.865Z,20.9
2016-06-18T09:49:10.838Z,20.86
2016-06-18T09:50:10.857Z,20.9
2016-06-18T09:51:10.907Z,20.94
2016-06-18T09:52:10.849Z,20.93
2016-06-18T09:53:10.836Z,20.98
2016-06-18T09:54:10.777Z,20.98
2016-06-18T09:55:10.843Z,20.93
2016-06-18T09:56:10.893Z,21.03
2016-06-18T09:57:10.850Z,21.01
2016-06-18T09:58:10.931Z,20.9
2016-06-18T09:59:10.903Z,20.93
2016-06-18T10:00:10.876Z,21
2016-06-18T10:01:10.895Z,20.94
2016-06-18T10:02:10.899Z,20.94
2016-06-18T10:03:10.886Z,20.96
2016-06-18T10:04:10.859Z,20.88
2016-06-18T10:05:10.893Z,20.91
2016-06-18T10:06:10.897Z,20.94
2016-06-18T10:07:10.853Z,20.98
2016-06-18T10:08:10.935Z,20.91
2016-06-18T10:09:10.908Z,20.93
2016-06-18T10:10:10.833Z,20.94
2016-06-18T10:11:10.961Z,20.82
2016-06-18T10:12:10.934Z,20.88
2016-06-18T10:13:10.937Z,20.86
2016-06-18T10:14:10.940Z,20.83
2016-06-18T10:15:10.927Z,20.83
2016-06-18T10:16:11.056Z,20.82
2016-06-18T10:17:10.951Z,20.81
2016-06-18T10:18:10.860Z,20.83
2016-06-18T10:19:10.895Z,20.79
2016-06-18T10:20:10.977Z,20.81
2016-06-18T10:21:10.933Z,20.74
2016-06-18T10:22:10.936Z,20.75
2016-06-18T10:23:10.893Z,20.76
2016-06-18T10:24:10.928Z,20.81
2016-06-18T10:25:10.915Z,20.78
2016-06-18T10:26:10.903Z,20.68
2016-06-18T10:27:10.907Z,20.72
2016-06-18T10:28:10.941Z,20.78
2016-06-18T10:29:10.898Z,20.72
2016-06-18T10:30:10.995Z,20.68
2016-06-18T10:31:10.952Z,20.72
2016-06-18T10:32:10.908Z,20.67
2016-06-18T10:33:10.943Z,20.71
2016-06-18T10:34:10.946Z,20.68
2016-06-18T10:35:10.935Z,20.64
2016-06-18T10:36:10.922Z,20.6
2016-06-18T10:37:10.956Z,20.57
2016-06-18T10:38:10.960Z,20.6
2016-06-18T10:39:10.933Z,20.63
2016-06-18T10:40:10.920Z,20.61
2016-06-18T10:41:11.002Z,20.57
2016-06-18T10:42:10.927Z,20.51
2016-06-18T10:43:10.946Z,20.54
2016-06-18T10:44:10.996Z,20.58
2016-06-18T10:45:11.032Z,20.57
2016-06-18T10:46:10.957Z,20.57
2016-06-18T10:47:11.038Z,20.6
2016-06-18T10:48:11.010Z,20.57
2016-06-18T10:49:10.967Z,20.63
2016-06-18T10:50:11.018Z,20.63
2016-06-18T10:51:11.052Z,20.63
2016-06-18T10:52:11.021Z,20.6
2016-06-18T10:53:11.009Z,20.63
2016-06-18T10:54:11.028Z,20.63
2016-06-18T10:55:11.016Z,20.57
2016-06-18T10:56:11.019Z,20.63
2016-06-18T10:57:11.116Z,20.61
2016-06-18T10:58:11.042Z,20.67
2016-06-18T10:59:10.998Z,20.66
2016-06-18T11:00:11.080Z,20.63
2016-06-18T11:01:11.037Z,20.66
2016-06-18T11:02:11.072Z,20.68
2016-06-18T11:03:10.996Z,20.68
2016-06-18T11:04:11.032Z,20.63
2016-06-18T11:05:11.019Z,20.61
2016-06-18T11:06:11.023Z,20.66
2016-06-18T11:07:11.026Z,20.6
2016-06-18T11:08:10.952Z,20.67
2016-06-18T11:09:11.064Z,20.6
2016-06-18T11:10:11.068Z,20.6
2016-06-18T11:11:10.993Z,20.6
2016-06-18T11:12:11.027Z,20.6
2016-06-18T11:13:11.016Z,20.68
2016-06-18T11:14:11.034Z,20.56
2016-06-18T11:15:11.053Z,20.49
2016-06-18T11:16:11.120Z,20.53
2016-06-18T11:17:10.982Z,20.63
2016-06-18T11:18:11.095Z,20.61
2016-06-18T11:19:11.068Z,20.49
2016-06-18T11:20:11.102Z,20.61
2016-06-18T11:21:10.980Z,20.58
2016-06-18T11:22:11.031Z,20.58
2016-06-18T11:23:11.051Z,20.57
2016-06-18T11:24:11.037Z,20.58
2016-06-18T11:25:11.184Z,20.6
2016-06-18T11:26:11.063Z,20.66
2016-06-18T11:27:11.097Z,20.67
2016-06-18T11:28:11.178Z,20.74
2016-06-18T11:29:11.088Z,20.79
2016-06-18T11:30:11.138Z,20.75
2016-06-18T11:31:11.080Z,20.83
2016-06-18T11:32:11.052Z,20.85
2016-06-18T11:33:11.118Z,20.81
2016-06-18T11:34:11.027Z,20.88
2016-06-18T11:41:12.948Z,20.88
2016-06-18T11:42:12.904Z,20.9
2016-06-18T11:43:12.830Z,20.91
2016-06-18T11:44:12.897Z,20.91
2016-06-18T11:45:12.900Z,20.96
2016-06-18T11:46:12.965Z,20.93
2016-06-18T11:47:12.923Z,20.94
2016-06-18T11:48:12.910Z,20.94
2016-06-18T11:49:12.914Z,20.96
2016-06-18T11:50:12.901Z,20.96
2016-06-18T11:51:12.874Z,20.93
2016-06-18T11:52:12.878Z,20.97
2016-06-18T11:53:12.881Z,20.96
2016-06-18T11:54:12.853Z,20.98
2016-06-18T11:55:12.966Z,21.04
2016-06-18T11:56:12.907Z,21
2016-06-18T11:57:12.942Z,20.98
2016-06-18T11:58:12.867Z,20.97
2016-06-18T11:59:12.951Z,21.03
2016-06-18T12:00:13.001Z,21.04
2016-06-18T12:01:12.991Z,21.03
2016-06-18T12:02:12.698Z,21.11
2016-06-18T12:03:12.936Z,21.06
2016-06-18T12:04:13.019Z,21.08
2016-06-18T12:05:13.007Z,20.97
2016-06-18T12:06:12.948Z,21.03
2016-06-18T12:07:12.874Z,21.03
2016-06-18T12:08:12.941Z,20.94
2016-06-18T12:09:12.881Z,20.96
2016-06-18T12:10:12.963Z,20.91
2016-06-18T12:11:12.748Z,20.93
2016-06-18T12:12:13.017Z,20.96
2016-06-18T12:13:12.973Z,20.91
2016-06-18T12:14:12.992Z,20.97
2016-06-18T12:15:13.012Z,20.97
2016-06-18T12:16:12.969Z,20.98
2016-06-18T12:17:13.019Z,20.97
2016-06-18T12:18:12.945Z,21.01
2016-06-18T12:19:12.948Z,21.04
2016-06-18T12:20:12.984Z,21.04
2016-06-18T12:21:12.925Z,21.03
2016-06-18T12:22:12.991Z,21.09
2016-06-18T12:23:13.041Z,21.13
2016-06-18T12:24:12.998Z,21.12
2016-06-18T12:25:12.970Z,21.04
2016-06-18T12:26:13.005Z,21.13
2016-06-18T12:27:12.945Z,21.04
2016-06-18T12:28:13.152Z,21.12
2016-06-18T12:29:12.969Z,21.19
2016-06-18T12:30:13.019Z,21.19
2016-06-18T12:31:13.022Z,21.19
2016-06-18T12:32:13.072Z,21.21
2016-06-18T12:33:13.044Z,21.21
2016-06-18T12:34:13.079Z,21.19
2016-06-18T12:35:13.051Z,21.18
2016-06-18T12:36:13.055Z,21.11
2016-06-18T12:37:13.105Z,21.3
2016-06-18T12:38:12.984Z,21.19
2016-06-18T12:39:13.112Z,21.23
2016-06-18T12:40:13.054Z,21.27
2016-06-18T12:41:13.041Z,21.3
2016-06-18T12:42:13.107Z,21.34
2016-06-18T12:43:13.048Z,21.3
2016-06-18T12:44:13.005Z,21.37
2016-06-18T12:45:13.071Z,21.45
2016-06-18T12:46:13.042Z,21.38
2016-06-18T12:47:13.015Z,21.45
2016-06-18T12:48:12.987Z,21.4
2016-06-18T12:49:13.053Z,21.43
2016-06-18T12:50:13.135Z,21.43
2016-06-18T12:51:13.014Z,21.48
2016-06-18T12:52:13.143Z,21.45
2016-06-18T12:53:13.115Z,21.52
2016-06-18T12:54:13.118Z,21.55
2016-06-18T12:55:13.029Z,21.59
2016-06-18T12:56:13.064Z,21.53
2016-06-18T12:57:13.037Z,21.59
2016-06-18T12:58:13.086Z,21.62
2016-06-18T12:59:13.136Z,21.61
2016-06-18T13:00:13.156Z,21.68
2016-06-18T13:01:13.096Z,21.67
2016-06-18T13:02:13.069Z,21.68
2016-06-18T13:03:13.057Z,21.71
2016-06-18T13:04:13.153Z,21.66
2016-06-18T13:05:13.079Z,21.71
2016-06-18T13:06:13.113Z,21.77